Archival Weather

Norman Y Mineta San Jose Intl

San Jose, California (KSJC)

Report from: Sunday, February 18, 2024 8:53 AM PST
Current time: Friday, June 21, 2024 1:29 AM PDT

Current weather – Weather history – Daily summaries
Weather forecast

Temperature15.0°C (59.0°F)
Dew point9.4°C (48.9°F)
Winds 11 kts (5.7 m/s, 12.7 mph) East-Southeast (120°)
Wind gusts 22 kts (11.3 m/s, 25.3 mph)
Visibility10 mi. (16.1 km)
Clouds Few clouds 2,500 ft. (762 m)
Few clouds 4,500 ft. (1,372 m)
Scattered clouds 10,000 ft. (3,048 m)
Altimeter29.93 in.Hg (1014 mB)
Relative humidity69 %
Density altitude166 ft. (51 m)
Sea-level pressure101.3 kPa (1013 mB, 29.92 in.Hg)
Remarks Automated weather observing station with precipitation discriminator
Flight conditions Visual Meteorological Conditions
Raw dataKSJC 181653Z 12011G22KT 10SM FEW025 FEW045 SCT100 15/09 A2993 RMK AO2 SLP133 T01500094
An error has occurred. This application may no longer respond until reloaded. Reload 🗙